Time;durP1;ratioP1;P1;durP2;ratioP2;P2;SDS_P1;SDS_P2;PMS_P1;PMS_P2;Temp;Humidity;BMP_temperature;BMP_pressure;BME280_temperature;BME280_humidity;BME280_pressure;Samples;Min_cycle;Max_cycle;Signal;HPM_P1;HPM_P2
2024/03/10 00:00:54;;;;;;;78.80;33.30;;;;;;;-1.02;53.21;101439.02;107610;1250;107733;-67
2024/03/10 00:03:43;;;;;;;75.10;34.80;;;;;;;-1.03;53.33;101441.00;107519;1251;97881;-67
2024/03/10 00:06:11;;;;;;;75.00;35.40;;;;;;;-1.04;53.60;101440.48;107545;1251;97695;-68
2024/03/10 00:08:42;;;;;;;85.70;36.60;;;;;;;-1.05;53.39;101439.12;107497;1251;111033;-68
2024/03/10 00:11:11;;;;;;;71.40;32.70;;;;;;;-1.09;52.99;101436.22;107622;1253;108056;-68
2024/03/10 00:13:40;;;;;;;77.10;31.90;;;;;;;-1.11;53.20;101436.81;107519;1251;108261;-68
2024/03/10 00:16:09;;;;;;;74.10;32.20;;;;;;;-1.11;53.37;101435.25;107589;1251;98010;-66
2024/03/10 00:18:38;;;;;;;79.30;32.00;;;;;;;-1.12;53.52;101431.58;107819;1248;97830;-65
2024/03/10 00:21:06;;;;;;;76.00;32.40;;;;;;;-1.13;53.34;101431.41;107626;1251;112192;-66
2024/03/10 00:23:37;;;;;;;75.80;32.90;;;;;;;-1.13;53.40;101434.59;107511;1250;107952;-67
2024/03/10 00:26:05;;;;;;;72.50;33.00;;;;;;;-1.15;53.68;101435.52;107521;1250;107152;-68
2024/03/10 00:28:35;;;;;;;74.50;32.30;;;;;;;-1.17;53.48;101433.12;107501;1250;97819;-71
2024/03/10 00:31:03;;;;;;;76.20;32.00;;;;;;;-1.18;53.14;101429.10;107660;1252;97941;-69
2024/03/10 00:33:33;;;;;;;84.90;31.90;;;;;;;-1.17;53.54;101428.55;107582;1250;111394;-68
2024/03/10 00:36:02;;;;;;;75.40;30.90;;;;;;;-1.18;53.86;101420.99;107568;1256;108423;-68
2024/03/10 00:38:31;;;;;;;74.30;33.10;;;;;;;-1.17;54.19;101422.04;107596;1250;106842;-68
2024/03/10 00:41:00;;;;;;;74.20;30.50;;;;;;;-1.18;54.31;101420.64;107614;1251;97922;-69
2024/03/10 00:43:28;;;;;;;72.40;29.90;;;;;;;-1.20;54.54;101418.58;107644;1255;98415;-66
2024/03/10 00:45:57;;;;;;;66.90;30.90;;;;;;;-1.23;54.40;101415.00;107605;1254;111406;-66
2024/03/10 00:48:25;;;;;;;75.90;31.80;;;;;;;-1.27;54.28;101418.42;107664;1248;107457;-67
2024/03/10 00:50:54;;;;;;;73.70;30.10;;;;;;;-1.30;54.39;101415.71;107532;1251;107873;-66
2024/03/10 00:53:22;;;;;;;70.80;31.50;;;;;;;-1.32;54.70;101409.27;107487;1250;98381;-67
2024/03/10 00:55:51;;;;;;;72.70;31.80;;;;;;;-1.32;54.68;101407.86;107627;1251;97847;-67
2024/03/10 00:58:20;;;;;;;68.90;30.90;;;;;;;-1.34;54.54;101403.48;107532;1252;111669;-66
2024/03/10 01:00:49;;;;;;;72.40;31.60;;;;;;;-1.34;54.75;101398.39;107628;1254;108087;-67
2024/03/10 01:03:17;;;;;;;78.30;32.20;;;;;;;-1.37;54.81;101398.13;107503;1251;107916;-68
2024/03/10 01:05:47;;;;;;;71.80;31.90;;;;;;;-1.42;55.16;101397.22;107529;1253;97825;-68
2024/03/10 01:08:15;;;;;;;70.10;30.20;;;;;;;-1.45;55.24;101396.61;107483;1250;98381;-69
2024/03/10 01:10:44;;;;;;;70.00;32.30;;;;;;;-1.46;55.42;101395.23;107627;1250;111842;-69
2024/03/10 01:13:15;;;;;;;74.90;32.20;;;;;;;-1.48;55.80;101394.73;107646;1250;107662;-69
2024/03/10 01:15:44;;;;;;;72.90;31.50;;;;;;;-1.50;56.02;101393.23;107538;1251;108371;-67
2024/03/10 01:18:12;;;;;;;65.90;29.50;;;;;;;-1.51;55.72;101393.77;107613;1250;97904;-67
2024/03/10 01:20:40;;;;;;;75.40;30.30;;;;;;;-1.52;55.57;101389.38;107501;1253;97969;-67
2024/03/10 01:23:10;;;;;;;71.80;29.30;;;;;;;-1.52;55.49;101391.88;107606;1253;112467;-66
2024/03/10 01:25:39;;;;;;;69.90;31.20;;;;;;;-1.58;55.96;101390.45;107617;1250;107587;-66
2024/03/10 01:28:08;;;;;;;68.90;30.50;;;;;;;-1.64;56.24;101389.41;107586;1251;108199;-68
2024/03/10 01:30:38;;;;;;;77.40;31.70;;;;;;;-1.70;56.45;101386.73;107573;1255;97851;-67
2024/03/10 01:33:08;;;;;;;61.60;29.50;;;;;;;-1.71;56.13;101385.38;107613;1251;98358;-67
2024/03/10 01:35:36;;;;;;;79.50;32.80;;;;;;;-1.73;56.05;101383.83;107640;1253;110687;-66
2024/03/10 01:38:05;;;;;;;67.70;31.00;;;;;;;-1.76;56.09;101381.80;107623;1251;108417;-69
2024/03/10 01:40:33;;;;;;;67.50;31.90;;;;;;;-1.77;56.59;101387.27;107608;1250;107648;-69
2024/03/10 01:43:04;;;;;;;74.80;32.70;;;;;;;-1.79;56.60;101380.10;107557;1256;97931;-69
2024/03/10 01:45:32;;;;;;;69.70;28.80;;;;;;;-1.79;56.29;101376.45;107629;1249;98460;-68
2024/03/10 01:48:02;;;;;;;71.30;31.10;;;;;;;-1.79;56.20;101372.40;107597;1250;111498;-68
2024/03/10 01:50:31;;;;;;;77.00;30.80;;;;;;;-1.81;56.16;101372.61;107545;1250;107872;-67
2024/03/10 01:53:00;;;;;;;65.20;29.60;;;;;;;-1.82;56.27;101368.94;107511;1250;107016;-68
2024/03/10 01:55:28;;;;;;;76.00;31.40;;;;;;;-1.81;56.09;101366.29;107461;1255;97848;-68
2024/03/10 01:57:57;;;;;;;80.10;32.60;;;;;;;-1.83;56.14;101368.27;107531;1254;97700;-68
2024/03/10 02:00:26;;;;;;;62.90;30.10;;;;;;;-1.85;55.99;101372.36;107565;1250;111211;-68
2024/03/10 02:02:55;;;;;;;60.40;29.60;;;;;;;-1.87;56.30;101374.18;107590;1255;108668;-67
2024/03/10 02:05:24;;;;;;;77.60;30.80;;;;;;;-1.91;56.32;101375.15;107522;1250;107906;-67
2024/03/10 02:07:53;;;;;;;66.70;30.00;;;;;;;-1.93;56.62;101377.70;107563;1251;97812;-67
2024/03/10 02:10:21;;;;;;;73.50;30.70;;;;;;;-1.97;56.42;101379.55;107545;1251;97718;-66
2024/03/10 02:12:50;;;;;;;63.70;28.80;;;;;;;-1.99;56.25;101373.63;107591;1250;111811;-69
2024/03/10 02:15:22;;;;;;;71.10;30.30;;;;;;;-2.03;56.63;101372.67;107573;1250;107942;-69
2024/03/10 02:17:51;;;;;;;68.50;30.60;;;;;;;-2.08;56.89;101371.57;107613;1251;108263;-70
2024/03/10 02:20:20;;;;;;;75.10;30.80;;;;;;;-2.11;56.97;101372.71;107656;1252;97819;-68
2024/03/10 02:22:50;;;;;;;72.50;30.40;;;;;;;-2.13;57.01;101373.27;107560;1251;98261;-69
2024/03/10 02:25:23;;;;;;;62.50;30.50;;;;;;;-2.15;56.93;101372.98;107538;1250;111042;-69
2024/03/10 02:27:59;;;;;;;78.30;31.30;;;;;;;-2.17;57.24;101376.55;107503;1250;108339;-67
2024/03/10 02:30:31;;;;;;;64.50;29.60;;;;;;;-2.21;56.99;101376.11;107595;1250;108592;-68
2024/03/10 02:47:13;;;;;;;67.30;27.50;;;;;;;-2.31;56.93;101372.16;107574;1251;97716;-68
2024/03/10 02:49:42;;;;;;;;;;;;;;;-2.31;57.17;101373.58;107645;1248;97727;-69
2024/03/10 02:52:12;;;;;;;63.20;27.90;;;;;;;-2.33;56.73;101373.98;107638;1250;111082;-69
2024/03/10 02:54:41;;;;;;;65.00;27.80;;;;;;;-2.36;57.34;101365.25;107514;1250;107801;-69
2024/03/10 02:57:09;;;;;;;55.10;27.30;;;;;;;-2.38;56.94;101364.77;107563;1251;107632;-67
2024/03/10 02:59:37;;;;;;;56.20;27.40;;;;;;;-2.39;57.41;101366.23;107626;1253;97810;-68
2024/03/10 03:02:08;;;;;;;66.10;28.60;;;;;;;-2.40;56.85;101365.52;107567;1253;97848;-69
2024/03/10 03:04:38;;;;;;;67.00;28.60;;;;;;;-2.40;57.62;101368.16;107544;1253;112009;-69
2024/03/10 03:07:07;;;;;;;61.90;26.30;;;;;;;-2.42;57.45;101365.56;107555;1251;108080;-66
2024/03/10 03:09:35;;;;;;;63.40;27.00;;;;;;;-2.41;57.38;101363.80;107459;1251;107569;-67
2024/03/10 03:12:04;;;;;;;68.90;26.90;;;;;;;-2.42;57.70;101369.08;107509;1250;97842;-67
2024/03/10 03:14:35;;;;;;;63.40;28.20;;;;;;;-2.39;57.68;101365.69;107503;1250;98382;-67
2024/03/10 03:17:05;;;;;;;71.80;28.30;;;;;;;-2.34;57.63;101366.10;107523;1253;112016;-68
2024/03/10 03:19:33;;;;;;;61.10;27.10;;;;;;;-2.28;58.05;101364.70;107610;1250;108112;-68
2024/03/10 03:22:10;;;;;;;65.50;26.50;;;;;;;-2.22;58.43;101364.20;107471;1253;108142;-69
2024/03/10 03:24:39;;;;;;;58.90;24.30;;;;;;;-2.15;58.19;101363.67;107641;1251;97827;-71
2024/03/10 03:27:08;;;;;;;60.90;27.60;;;;;;;-2.09;58.78;101365.98;107572;1253;98469;-68
2024/03/10 03:29:36;;;;;;;62.90;25.70;;;;;;;-2.04;58.42;101364.79;107598;1253;112024;-69
2024/03/10 03:32:05;;;;;;;60.30;27.30;;;;;;;-2.00;58.52;101364.14;107571;1253;108393;-70
2024/03/10 03:34:34;;;;;;;57.20;26.30;;;;;;;-1.96;58.65;101364.58;107587;1251;108212;-71
2024/03/10 03:37:02;;;;;;;60.70;26.40;;;;;;;-1.93;58.54;101361.70;107566;1250;97836;-69
2024/03/10 03:39:35;;;;;;;63.10;27.30;;;;;;;-1.91;58.42;101357.05;107621;1250;97868;-68
2024/03/10 03:42:04;;;;;;;55.90;25.30;;;;;;;-1.86;58.28;101355.88;107470;1250;111918;-69
2024/03/10 03:44:33;;;;;;;60.70;26.70;;;;;;;-1.84;58.42;101354.78;107549;1250;107901;-67
2024/03/10 03:47:01;;;;;;;61.60;28.30;;;;;;;-1.86;58.59;101357.45;107448;1251;108579;-68
2024/03/10 03:49:31;;;;;;;52.80;25.30;;;;;;;-1.86;58.02;101353.95;107617;1256;97817;-67
2024/03/10 03:51:59;;;;;;;46.60;23.10;;;;;;;-1.84;58.21;101354.77;107604;1254;97810;-67
2024/03/10 03:54:31;;;;;;;57.50;26.30;;;;;;;-1.84;58.13;101356.88;107613;1251;111423;-68
2024/03/10 03:57:00;;;;;;;55.80;25.20;;;;;;;-1.84;58.42;101356.36;107559;1251;107461;-68
2024/03/10 03:59:29;;;;;;;54.60;25.10;;;;;;;-1.83;58.36;101360.70;107584;1250;106443;-70
2024/03/10 04:01:57;;;;;;;58.50;24.80;;;;;;;-1.80;57.83;101361.51;107489;1252;97813;-69
2024/03/10 04:04:26;;;;;;;55.60;26.00;;;;;;;-1.79;58.22;101365.34;107581;1251;97788;-66
2024/03/10 04:06:55;;;;;;;61.60;25.70;;;;;;;-1.78;58.13;101366.38;107524;1251;110311;-69
2024/03/10 04:09:24;;;;;;;58.80;28.30;;;;;;;-1.78;57.69;101367.97;107566;1251;107887;-69
2024/03/10 04:11:52;;;;;;;66.20;26.90;;;;;;;-1.78;57.56;101368.32;107647;1253;107880;-68
2024/03/10 04:14:21;;;;;;;71.80;26.90;;;;;;;-1.79;57.99;101363.94;107647;1254;97847;-68
2024/03/10 04:16:53;;;;;;;62.50;26.70;;;;;;;-1.81;57.77;101364.52;107527;1250;97764;-67
2024/03/10 04:19:22;;;;;;;58.20;27.80;;;;;;;-1.83;57.77;101367.77;107543;1251;111670;-69
2024/03/10 04:21:50;;;;;;;57.30;25.90;;;;;;;-1.88;57.48;101369.30;107574;1250;107562;-67
2024/03/10 04:24:21;;;;;;;60.20;27.00;;;;;;;-1.91;57.48;101368.13;107490;1250;107654;-66
2024/03/10 04:26:50;;;;;;;57.70;25.40;;;;;;;-1.94;57.52;101369.98;107587;1252;97894;-68
2024/03/10 04:29:19;;;;;;;75.90;26.50;;;;;;;-1.99;57.11;101372.03;107624;1256;97943;-68
2024/03/10 04:31:48;;;;;;;62.80;24.30;;;;;;;-2.04;57.21;101370.79;107626;1252;112185;-69
2024/03/10 04:34:16;;;;;;;57.20;28.00;;;;;;;-2.09;57.33;101374.23;107574;1251;108398;-69
2024/03/10 04:36:45;;;;;;;62.50;25.80;;;;;;;-2.15;57.29;101376.49;107549;1257;107717;-68
2024/03/10 04:39:13;;;;;;;61.50;24.20;;;;;;;-2.21;57.39;101371.72;107741;1250;98978;-69
2024/03/10 04:41:42;;;;;;;55.80;26.00;;;;;;;-2.24;57.58;101378.48;107621;1248;97932;-68
2024/03/10 04:44:17;;;;;;;59.40;25.70;;;;;;;-2.28;57.52;101380.86;107595;1253;111849;-69
2024/03/10 04:46:46;;;;;;;76.10;27.50;;;;;;;-2.31;57.55;101382.54;107595;1250;107965;-67
2024/03/10 04:49:17;;;;;;;66.50;29.70;;;;;;;-2.34;57.53;101385.27;107595;1251;108353;-68
2024/03/10 04:51:46;;;;;;;55.50;27.40;;;;;;;-2.37;57.49;101385.66;107573;1250;97952;-68
2024/03/10 04:54:14;;;;;;;57.90;27.30;;;;;;;-2.37;57.46;101387.08;107514;1253;97729;-68
2024/03/10 04:56:45;;;;;;;60.10;27.10;;;;;;;-2.39;57.24;101385.89;107616;1251;112405;-68
2024/03/10 04:59:13;;;;;;;63.10;26.40;;;;;;;-2.41;57.50;101383.11;107667;1253;107978;-67
2024/03/10 05:01:42;;;;;;;61.90;26.50;;;;;;;-2.44;57.67;101385.66;107538;1250;108147;-68
2024/03/10 05:04:11;;;;;;;57.70;25.80;;;;;;;-2.47;57.89;101391.88;107724;1249;97973;-67
2024/03/10 05:06:41;;;;;;;71.60;27.70;;;;;;;-2.46;57.76;101391.51;107588;1251;98456;-67
2024/03/10 05:09:09;;;;;;;61.10;27.70;;;;;;;-2.45;57.45;101389.19;107550;1250;110958;-68
2024/03/10 05:11:39;;;;;;;60.90;27.30;;;;;;;-2.42;57.71;101389.81;107608;1251;107343;-69
2024/03/10 05:14:08;;;;;;;65.00;26.30;;;;;;;-2.38;57.54;101392.36;107610;1253;107581;-68
2024/03/10 05:16:37;;;;;;;55.60;25.30;;;;;;;-2.36;57.49;101393.73;107518;1253;97835;-69
2024/03/10 05:19:08;;;;;;;67.80;27.60;;;;;;;-2.33;58.07;101392.95;107626;1254;99071;-68
2024/03/10 05:21:36;;;;;;;72.00;27.60;;;;;;;-2.28;57.70;101395.97;107573;1250;111755;-67
2024/03/10 05:24:07;;;;;;;65.70;29.00;;;;;;;-2.24;58.16;101393.78;107581;1254;107338;-67
2024/03/10 05:26:36;;;;;;;63.10;27.80;;;;;;;-2.18;57.78;101395.02;107518;1250;108531;-68
2024/03/10 05:29:04;;;;;;;73.10;31.80;;;;;;;-2.15;57.78;101390.55;107486;1254;97809;-67
2024/03/10 05:31:33;;;;;;;83.00;36.50;;;;;;;-2.14;58.40;101393.00;107578;1253;98356;-68
2024/03/10 05:34:03;;;;;;;89.70;36.10;;;;;;;-2.12;57.83;101398.23;107571;1253;112486;-68
2024/03/10 05:36:33;;;;;;;74.80;32.80;;;;;;;-2.08;58.08;101403.39;107671;1253;107974;-69
2024/03/10 05:39:02;;;;;;;69.20;31.70;;;;;;;-2.04;57.84;101407.15;107347;1251;107623;-68
2024/03/10 05:41:30;;;;;;;71.00;29.60;;;;;;;-1.99;58.04;101408.27;107595;1251;97828;-69
2024/03/10 05:43:59;;;;;;;70.50;31.60;;;;;;;-1.94;57.96;101409.52;107615;1251;97829;-69
2024/03/10 05:46:28;;;;;;;70.50;30.90;;;;;;;-1.87;58.06;101411.10;107575;1252;111253;-70
2024/03/10 05:48:58;;;;;;;80.90;32.50;;;;;;;-1.80;58.36;101407.92;107479;1250;106759;-69
2024/03/10 05:51:27;;;;;;;79.50;34.70;;;;;;;-1.72;57.81;101408.59;107585;1256;107676;-69
2024/03/10 05:53:59;;;;;;;80.30;34.50;;;;;;;-1.63;57.43;101410.13;107539;1256;97893;-69
2024/03/10 05:56:27;;;;;;;74.80;31.90;;;;;;;-1.55;57.73;101409.18;107531;1255;97838;-68
2024/03/10 05:58:56;;;;;;;77.10;33.10;;;;;;;-1.45;57.84;101415.42;107632;1254;111856;-67
2024/03/10 06:01:24;;;;;;;79.40;33.90;;;;;;;-1.37;57.48;101412.91;107534;1250;107694;-68
2024/03/10 06:03:53;;;;;;;90.10;34.30;;;;;;;-1.29;57.29;101411.11;107436;1251;108070;-68
2024/03/10 06:06:22;;;;;;;66.60;32.90;;;;;;;-1.21;57.11;101408.93;107598;1250;97938;-67
2024/03/10 06:08:51;;;;;;;76.80;33.80;;;;;;;-1.12;57.29;101405.17;107541;1250;97829;-68
2024/03/10 06:11:20;;;;;;;81.90;33.80;;;;;;;-1.04;57.29;101398.06;107526;1250;111759;-67
2024/03/10 06:13:50;;;;;;;85.20;36.60;;;;;;;-0.97;57.04;101398.70;107557;1250;108051;-67
2024/03/10 06:16:19;;;;;;;70.40;34.70;;;;;;;-0.89;56.99;101396.02;107468;1251;107148;-68
2024/03/10 06:27:02;;;;;;;99.70;39.20;;;;;;;-0.51;57.44;101402.91;107575;1251;108258;-69
2024/03/10 06:29:30;;;;;;;117.10;44.70;;;;;;;-0.40;57.15;101399.23;107545;1251;107625;-69
2024/03/10 06:31:59;;;;;;;147.40;46.00;;;;;;;-0.29;57.33;101398.53;107552;1250;97908;-68
2024/03/10 06:34:28;;;;;;;137.20;46.60;;;;;;;-0.18;57.40;101402.03;107583;1251;98663;-67
2024/03/10 06:36:56;;;;;;;148.40;51.10;;;;;;;-0.07;57.31;101399.56;107515;1251;112256;-68
2024/03/10 06:39:25;;;;;;;156.80;51.50;;;;;;;0.03;57.18;101398.14;107499;1250;107281;-67
2024/03/10 06:41:53;;;;;;;147.30;54.90;;;;;;;0.14;57.23;101393.70;107452;1250;108335;-68
2024/03/10 06:44:21;;;;;;;146.40;53.30;;;;;;;0.24;56.93;101397.42;107494;1255;97837;-68
2024/03/10 06:46:50;;;;;;;154.00;52.70;;;;;;;0.33;57.21;101392.34;107576;1251;97844;-68
2024/03/10 06:49:19;;;;;;;136.00;52.80;;;;;;;0.44;57.22;101390.90;107528;1255;111294;-68
2024/03/10 06:51:48;;;;;;;135.10;52.40;;;;;;;0.55;57.11;101391.05;107591;1251;107741;-70
2024/03/10 06:54:17;;;;;;;121.40;46.50;;;;;;;0.64;56.92;101393.52;107653;1255;106447;-70
2024/03/10 06:56:45;;;;;;;132.00;48.80;;;;;;;0.75;57.06;101395.95;107617;1251;97841;-70
2024/03/10 06:59:15;;;;;;;109.70;42.20;;;;;;;0.85;57.06;101396.45;107545;1251;99143;-70
2024/03/10 07:01:44;;;;;;;110.90;44.30;;;;;;;0.98;57.01;101395.27;107618;1252;111584;-72
2024/03/10 07:04:14;;;;;;;98.60;41.10;;;;;;;1.10;57.40;101400.81;107523;1251;107934;-67
2024/03/10 07:06:42;;;;;;;91.30;36.10;;;;;;;1.25;57.38;101398.66;107530;1251;107050;-66
2024/03/10 07:09:11;;;;;;;100.00;36.20;;;;;;;1.39;57.12;101402.31;107608;1255;97828;-67
2024/03/10 07:11:44;;;;;;;95.60;35.10;;;;;;;1.54;57.24;101407.39;107606;1255;97962;-65
2024/03/10 07:14:14;;;;;;;78.10;34.30;;;;;;;1.67;56.96;101401.39;107557;1250;111654;-67
2024/03/10 07:16:44;;;;;;;70.30;31.50;;;;;;;1.81;56.96;101404.88;107552;1254;107383;-65
2024/03/10 07:19:16;;;;;;;64.70;30.40;;;;;;;1.95;56.82;101404.28;107580;1253;108161;-66
2024/03/10 07:21:45;;;;;;;68.70;32.20;;;;;;;2.07;56.75;101407.30;107538;1251;98007;-67
2024/03/10 07:24:14;;;;;;;70.30;31.80;;;;;;;2.21;56.79;101403.54;107651;1251;97940;-69
2024/03/10 07:26:42;;;;;;;70.10;30.60;;;;;;;2.34;56.73;101400.29;107423;1256;111004;-69
2024/03/10 07:29:11;;;;;;;65.40;30.10;;;;;;;2.51;56.90;101405.77;107569;1252;107362;-69
2024/03/10 07:31:39;;;;;;;66.10;30.30;;;;;;;2.66;56.50;101403.70;107505;1253;108323;-69
2024/03/10 07:34:08;;;;;;;67.30;31.80;;;;;;;2.80;56.37;101404.83;107604;1251;97894;-68
2024/03/10 07:36:36;;;;;;;72.80;31.00;;;;;;;2.93;56.31;101402.13;107618;1251;97848;-66
2024/03/10 07:39:06;;;;;;;81.30;32.60;;;;;;;3.06;56.28;101398.83;107632;1256;112018;-67
2024/03/10 07:41:34;;;;;;;71.30;32.30;;;;;;;3.23;56.15;101399.64;107680;1251;107837;-67
2024/03/10 07:44:04;;;;;;;67.10;30.60;;;;;;;3.39;56.21;101396.02;107564;1254;108088;-65
2024/03/10 07:46:32;;;;;;;69.40;31.80;;;;;;;3.56;55.95;101388.27;107472;1254;97855;-67
2024/03/10 07:49:02;;;;;;;71.90;29.80;;;;;;;3.74;55.99;101387.42;107253;1251;386816;-65
2024/03/10 07:51:31;;;;;;;63.50;27.30;;;;;;;3.90;55.84;101384.67;107523;1254;111146;-66
2024/03/10 07:54:02;;;;;;;70.30;32.20;;;;;;;4.05;55.61;101381.05;107520;1251;107984;-71
2024/03/10 07:56:32;;;;;;;62.00;28.90;;;;;;;4.24;55.44;101382.04;107631;1251;108445;-68
2024/03/10 07:59:01;;;;;;;70.40;31.10;;;;;;;4.43;55.33;101377.50;107624;1251;97858;-69
2024/03/10 08:01:29;;;;;;;67.90;32.00;;;;;;;4.61;54.95;101374.26;107538;1251;97848;-68
2024/03/10 08:03:58;;;;;;;66.80;29.40;;;;;;;4.78;54.77;101369.80;107817;1251;110354;-68
2024/03/10 08:06:26;;;;;;;61.00;30.30;;;;;;;4.95;54.70;101371.34;107717;1251;107401;-66
2024/03/10 08:08:55;;;;;;;65.00;31.30;;;;;;;5.14;54.20;101368.33;107610;1254;107800;-66
2024/03/10 08:11:23;;;;;;;56.80;27.40;;;;;;;5.36;53.72;101364.45;107596;1251;97829;-65
2024/03/10 08:13:52;;;;;;;60.60;27.30;;;;;;;5.54;53.44;101360.35;107557;1253;97882;-67
2024/03/10 08:16:20;;;;;;;60.90;27.60;;;;;;;5.72;53.39;101358.27;107551;1251;112235;-65
2024/03/10 08:18:49;;;;;;;58.90;27.60;;;;;;;5.89;52.91;101354.60;107453;1254;106639;-67
2024/03/10 08:21:18;;;;;;;52.40;24.50;;;;;;;6.06;52.63;101354.36;107591;1256;106972;-66
2024/03/10 08:23:47;;;;;;;65.50;27.70;;;;;;;6.23;52.34;101349.95;107570;1255;97869;-68
2024/03/10 08:26:16;;;;;;;62.20;24.70;;;;;;;6.39;51.85;101348.80;107518;1251;97834;-67
2024/03/10 08:28:46;;;;;;;49.80;26.20;;;;;;;6.54;51.76;101349.80;107454;1251;111337;-67
2024/03/10 08:31:16;;;;;;;47.80;24.40;;;;;;;6.70;51.31;101353.25;107616;1251;108331;-69
2024/03/10 08:33:45;;;;;;;54.80;26.20;;;;;;;6.88;51.39;101349.63;107591;1251;108347;-67
2024/03/10 08:36:13;;;;;;;49.80;24.50;;;;;;;7.09;51.22;101345.64;107431;1251;98080;-67
2024/03/10 08:38:42;;;;;;;62.90;25.30;;;;;;;7.31;51.29;101343.48;107600;1256;97787;-66
2024/03/10 08:41:11;;;;;;;52.80;25.60;;;;;;;7.54;50.32;101334.70;107550;1251;111429;-66
2024/03/10 08:43:40;;;;;;;62.70;27.10;;;;;;;7.75;50.27;101335.59;107446;1250;107710;-67
2024/03/10 08:46:11;;;;;;;49.00;24.90;;;;;;;7.99;49.54;101331.68;107383;1250;107877;-67
2024/03/10 08:48:40;;;;;;;54.70;25.50;;;;;;;8.20;48.47;101322.49;107525;1255;97823;-66
2024/03/10 08:51:09;;;;;;;45.20;22.80;;;;;;;8.40;48.45;101318.99;107458;1251;98369;-65
2024/03/10 08:53:37;;;;;;;51.00;25.60;;;;;;;8.63;48.16;101314.70;107432;1251;111789;-66
2024/03/10 08:56:07;;;;;;;55.20;25.50;;;;;;;8.87;47.62;101312.63;107452;1251;108312;-67
2024/03/10 08:58:37;;;;;;;49.30;25.30;;;;;;;9.10;46.71;101305.42;107465;1257;108660;-69
2024/03/10 09:01:06;;;;;;;52.60;23.30;;;;;;;9.32;46.41;101299.54;107442;1250;97882;-71
2024/03/10 09:03:35;;;;;;;50.00;24.20;;;;;;;9.55;46.10;101293.50;107496;1256;98408;-72
2024/03/10 09:06:05;;;;;;;40.40;22.60;;;;;;;9.84;46.29;101293.64;107538;1256;111111;-71
2024/03/10 09:08:33;;;;;;;42.60;23.20;;;;;;;10.14;45.67;101288.98;107457;1251;108674;-69
2024/03/10 09:11:06;;;;;;;43.70;23.90;;;;;;;10.44;45.44;101287.17;107427;1257;107145;-71
2024/03/10 09:13:35;;;;;;;42.70;23.30;;;;;;;10.75;44.97;101282.04;107509;1257;97832;-71
2024/03/10 09:16:06;;;;;;;50.20;24.90;;;;;;;11.08;44.69;101283.64;107493;1251;98366;-70
2024/03/10 09:18:35;;;;;;;45.00;23.50;;;;;;;11.40;43.73;101283.33;107548;1253;111045;-70
2024/03/10 09:21:04;;;;;;;44.40;22.60;;;;;;;11.71;43.74;101280.86;107672;1251;107424;-70
2024/03/10 09:23:32;;;;;;;42.00;23.00;;;;;;;12.04;42.78;101270.74;107530;1251;107139;-70
2024/03/10 09:26:01;;;;;;;44.80;23.30;;;;;;;12.39;42.20;101264.48;107581;1251;99116;-70
2024/03/10 09:28:31;;;;;;;45.80;23.90;;;;;;;12.82;41.38;101263.52;107711;1251;97740;-69
2024/03/10 09:31:00;;;;;;;40.00;23.00;;;;;;;13.37;40.62;101259.29;107498;1250;110908;-71
2024/03/10 09:33:29;;;;;;;43.50;22.60;;;;;;;14.13;39.06;101263.17;107522;1251;107577;-71
2024/03/10 09:35:58;;;;;;;48.10;23.80;;;;;;;14.87;39.25;101259.80;107675;1251;107068;-70
2024/03/10 09:38:28;;;;;;;53.80;22.80;;;;;;;15.59;38.01;101253.75;107546;1251;97984;-71
2024/03/10 09:40:59;;;;;;;45.20;23.80;;;;;;;16.23;37.43;101257.33;107606;1251;97845;-70
2024/03/10 09:43:30;;;;;;;41.50;22.20;;;;;;;16.87;36.58;101254.39;107501;1251;109688;-69
2024/03/10 09:45:59;;;;;;;41.00;22.20;;;;;;;17.48;35.46;101253.95;107584;1251;107750;-70
2024/03/10 09:48:27;;;;;;;40.00;22.60;;;;;;;17.97;33.80;101254.97;107568;1251;107801;-67
2024/03/10 09:50:57;;;;;;;35.90;21.60;;;;;;;18.53;33.63;101253.84;107590;1251;97861;-68
2024/03/10 09:53:27;;;;;;;35.50;21.80;;;;;;;19.08;33.37;101249.85;107525;1251;97877;-67
2024/03/10 09:55:57;;;;;;;35.90;21.20;;;;;;;19.70;33.02;101246.02;107756;1253;111206;-66
2024/03/10 09:58:35;;;;;;;35.00;21.10;;;;;;;20.23;30.63;101240.34;107861;1251;108392;-67
2024/03/10 10:01:11;;;;;;;33.50;20.50;;;;;;;20.55;30.88;101239.29;107571;1251;106446;-66
2024/03/10 10:03:49;;;;;;;37.80;22.20;;;;;;;20.95;29.16;101232.80;107502;1253;97940;-67
2024/03/10 10:06:21;;;;;;;37.50;21.00;;;;;;;20.98;28.80;101235.13;107609;1256;97879;-65
2024/03/10 10:08:55;;;;;;;35.70;20.80;;;;;;;21.23;29.72;101234.14;107735;1249;111668;-67
2024/03/10 10:11:24;;;;;;;34.30;20.60;;;;;;;21.77;29.59;101230.70;107789;1253;108613;-66
2024/03/10 10:14:16;;;;;;;57.30;22.20;;;;;;;22.39;28.11;101226.70;107562;1251;109689;-66
2024/03/10 10:16:56;;;;;;;33.90;21.60;;;;;;;22.74;26.94;101223.98;107582;1257;97707;-67
2024/03/10 10:19:27;;;;;;;38.80;22.40;;;;;;;22.90;27.05;101221.45;107604;1251;97734;-65
2024/03/10 10:21:56;;;;;;;42.00;21.60;;;;;;;23.16;26.61;101214.34;107485;1249;111181;-67
2024/03/10 10:24:24;;;;;;;30.60;20.50;;;;;;;23.49;25.63;101217.91;107664;1251;108615;-67
2024/03/10 10:27:02;;;;;;;35.10;21.10;;;;;;;23.56;25.74;101215.00;107612;1252;107644;-67
2024/03/10 10:29:48;;;;;;;46.60;20.90;;;;;;;23.70;25.41;101210.98;107509;1251;97828;-66
2024/03/10 10:32:24;;;;;;;47.10;22.00;;;;;;;23.97;25.60;101206.76;107493;1251;97931;-66
2024/03/10 10:34:56;;;;;;;34.10;20.00;;;;;;;24.32;24.84;101202.55;107469;1251;111685;-66
2024/03/10 10:37:25;;;;;;;34.30;19.80;;;;;;;24.62;24.77;101202.05;107487;1251;108296;-69
2024/03/10 10:39:54;;;;;;;35.40;20.20;;;;;;;24.94;24.94;101193.95;107560;1251;108857;-69
2024/03/10 10:42:25;;;;;;;36.00;20.90;;;;;;;25.26;23.93;101186.92;107448;1254;97819;-67
2024/03/10 10:45:04;;;;;;;29.40;17.50;;;;;;;25.24;23.52;101180.98;107381;1251;97726;-67
2024/03/10 10:47:33;;;;;;;30.30;19.10;;;;;;;25.72;24.18;101180.19;107526;1250;111196;-67
2024/03/10 10:50:14;;;;;;;27.10;18.90;;;;;;;26.30;23.71;101173.70;107437;1251;107704;-66
2024/03/10 10:52:42;;;;;;;30.80;17.50;;;;;;;26.78;22.39;101161.17;107448;1249;107397;-66
2024/03/10 10:55:11;;;;;;;31.00;17.20;;;;;;;26.84;22.14;101154.21;107499;1251;97831;-67
2024/03/10 10:57:44;;;;;;;33.10;17.40;;;;;;;27.04;22.16;101157.52;107462;1251;97975;-67
2024/03/10 11:00:28;;;;;;;;;;;;;;;27.30;21.52;101153.69;107511;1251;111936;-66
2024/03/10 11:03:17;;;;;;;32.20;17.20;;;;;;;27.01;20.92;101151.74;107485;1254;108642;-68
2024/03/10 11:06:01;;;;;;;23.60;17.40;;;;;;;26.92;20.82;101152.23;107624;1251;108600;-67
2024/03/10 11:08:35;;;;;;;23.60;15.70;;;;;;;27.15;21.10;101148.50;107471;1251;98293;-67
2024/03/10 11:11:05;;;;;;;28.20;15.50;;;;;;;27.41;19.93;101143.55;107466;1250;97734;-67
2024/03/10 11:13:34;;;;;;;26.00;15.00;;;;;;;27.65;20.27;101139.44;107536;1250;111278;-68
2024/03/10 11:16:24;;;;;;;29.90;15.00;;;;;;;27.95;20.23;101136.77;107639;1251;108606;-66
2024/03/10 11:19:13;;;;;;;32.00;15.10;;;;;;;28.22;20.00;101130.38;107520;1251;107798;-67
2024/03/10 11:21:45;;;;;;;25.10;15.30;;;;;;;28.43;19.82;101132.77;107470;1251;97822;-66
2024/03/10 11:24:19;;;;;;;22.80;14.50;;;;;;;28.55;19.21;101129.80;107586;1251;97819;-66
2024/03/10 11:27:08;;;;;;;22.90;14.30;;;;;;;28.49;18.98;101131.11;107547;1251;111415;-67
2024/03/10 11:29:38;;;;;;;19.70;13.60;;;;;;;27.97;19.09;101138.57;107543;1251;108304;-67
2024/03/10 11:32:31;;;;;;;24.70;14.30;;;;;;;27.51;19.34;101136.23;107529;1251;107669;-66
2024/03/10 11:35:08;;;;;;;26.70;14.50;;;;;;;27.28;19.75;101137.11;107537;1251;98039;-67